LNI271 WADD-WAHS
Flight info
| Callsign | LNI271 |
|---|---|
| Flight time | 0h 56m |
| Altitude | 36000 |
| Route | OKANG T4 WAWAN |
| Aircraft | B739/M-SDE2E3FGHIRWXY/LB1 |
Departure
| Time | 2026-04-24 10:31 |
|---|---|
| Airport | Denpasar I Gusti Ngurah Rai International Airport (WADD) |
Arrival
| Time | 2026-04-24 11:28 |
|---|---|
| Airport | Jenderal Ahmad Yani Airport (WAHS) |
| Time | Latitude | Longitude | Altitude | Speed | Heading |
|---|---|---|---|---|---|
| 2026-04-24 10:14 | -8.74589 | 115.16277 | 21 ft | 0 kts | 358° |
| 2026-04-24 10:22 | -8.74596 | 115.16277 | 21 ft | 2 kts | 357° |
| 2026-04-24 10:22 | -8.74611 | 115.16278 | 20 ft | 2 kts | 357° |
| 2026-04-24 10:22 | -8.74626 | 115.16278 | 20 ft | 2 kts | 357° |
| 2026-04-24 10:23 | -8.74641 | 115.16279 | 20 ft | 2 kts | 357° |
| 2026-04-24 10:23 | -8.74656 | 115.16280 | 20 ft | 2 kts | 357° |
| 2026-04-24 10:23 | -8.74672 | 115.16280 | 20 ft | 2 kts | 357° |
| 2026-04-24 10:23 | -8.74681 | 115.16281 | 19 ft | 1 kts | 358° |
| 2026-04-24 10:24 | -8.74696 | 115.16284 | 19 ft | 2 kts | 327° |
| 2026-04-24 10:24 | -8.74707 | 115.16295 | 19 ft | 2 kts | 302° |
| 2026-04-24 10:24 | -8.74712 | 115.16309 | 19 ft | 2 kts | 276° |
| 2026-04-24 10:24 | -8.74712 | 115.16316 | 20 ft | 1 kts | 263° |
| 2026-04-24 10:25 | -8.74712 | 115.16320 | 20 ft | 0 kts | 266° |
| 2026-04-24 10:26 | -8.74712 | 115.16314 | 19 ft | 3 kts | 266° |
| 2026-04-24 10:26 | -8.74715 | 115.16275 | 19 ft | 7 kts | 266° |
| 2026-04-24 10:26 | -8.74718 | 115.16206 | 18 ft | 11 kts | 267° |
| 2026-04-24 10:27 | -8.74723 | 115.16114 | 17 ft | 14 kts | 267° |
| 2026-04-24 10:27 | -8.74729 | 115.15994 | 15 ft | 18 kts | 268° |
| 2026-04-24 10:27 | -8.74734 | 115.15849 | 14 ft | 22 kts | 266° |
| 2026-04-24 10:27 | -8.74741 | 115.15677 | 11 ft | 26 kts | 267° |
| 2026-04-24 10:28 | -8.74750 | 115.15531 | 11 ft | 17 kts | 268° |
| 2026-04-24 10:28 | -8.74785 | 115.15414 | 11 ft | 15 kts | 212° |
| 2026-04-24 10:28 | -8.74812 | 115.15404 | 11 ft | 0 kts | 187° |
| 2026-04-24 10:29 | -8.74849 | 115.15400 | 11 ft | 9 kts | 187° |
| 2026-04-24 10:29 | -8.74908 | 115.15408 | 12 ft | 8 kts | 135° |
| 2026-04-24 10:30 | -8.74916 | 115.15442 | 13 ft | 0 kts | 85° |
| 2026-04-24 10:30 | -8.74916 | 115.15443 | 13 ft | 1 kts | 85° |
| 2026-04-24 10:30 | -8.74908 | 115.15610 | 14 ft | 68 kts | 89° |
| 2026-04-24 10:31 | -8.74870 | 115.16431 | 18 ft | 159 kts | 89° |
| 2026-04-24 10:31 | -8.74810 | 115.17740 | 411 ft | 205 kts | 89° |
| 2026-04-24 10:31 | -8.74755 | 115.19186 | 1608 ft | 212 kts | 87° |
| 2026-04-24 10:31 | -8.74698 | 115.20675 | 2550 ft | 221 kts | 86° |
| 2026-04-24 10:32 | -8.74630 | 115.22282 | 3314 ft | 239 kts | 86° |
| 2026-04-24 10:32 | -8.74559 | 115.24001 | 4093 ft | 255 kts | 86° |
| 2026-04-24 10:32 | -8.74484 | 115.25819 | 4962 ft | 267 kts | 86° |
| 2026-04-24 10:32 | -8.74084 | 115.27630 | 6001 ft | 268 kts | 62° |
| 2026-04-24 10:33 | -8.72816 | 115.28954 | 6994 ft | 272 kts | 30° |
| 2026-04-24 10:33 | -8.71013 | 115.29539 | 7967 ft | 277 kts | 11° |
| 2026-04-24 10:33 | -8.69079 | 115.29692 | 8868 ft | 285 kts | 357° |
| 2026-04-24 10:33 | -8.67191 | 115.29021 | 9748 ft | 297 kts | 327° |
| 2026-04-24 10:34 | -8.65742 | 115.27505 | 10571 ft | 308 kts | 309° |
| 2026-04-24 10:34 | -8.64463 | 115.25699 | 11153 ft | 324 kts | 307° |
| 2026-04-24 10:34 | -8.63118 | 115.23808 | 11698 ft | 340 kts | 308° |
| 2026-04-24 10:34 | -8.61672 | 115.21849 | 12396 ft | 349 kts | 309° |
| 2026-04-24 10:35 | -8.60205 | 115.19898 | 13238 ft | 353 kts | 309° |
| 2026-04-24 10:35 | -8.58702 | 115.17911 | 14033 ft | 358 kts | 308° |
| 2026-04-24 10:35 | -8.57182 | 115.15906 | 14807 ft | 362 kts | 309° |
| 2026-04-24 10:35 | -8.55635 | 115.13868 | 15565 ft | 367 kts | 309° |
| 2026-04-24 10:36 | -8.54071 | 115.11809 | 16310 ft | 371 kts | 308° |
| 2026-04-24 10:36 | -8.52499 | 115.09740 | 17000 ft | 376 kts | 308° |
| 2026-04-24 10:36 | -8.50911 | 115.07651 | 17695 ft | 379 kts | 308° |
| 2026-04-24 10:36 | -8.49280 | 115.05505 | 18417 ft | 382 kts | 308° |
| 2026-04-24 10:37 | -8.47673 | 115.03392 | 19081 ft | 386 kts | 308° |
| 2026-04-24 10:37 | -8.46021 | 115.01221 | 19745 ft | 389 kts | 309° |
| 2026-04-24 10:37 | -8.44374 | 114.99057 | 20382 ft | 392 kts | 309° |
| 2026-04-24 10:37 | -8.42696 | 114.96855 | 20985 ft | 396 kts | 308° |
| 2026-04-24 10:38 | -8.41028 | 114.94663 | 21568 ft | 399 kts | 308° |
| 2026-04-24 10:38 | -8.39319 | 114.92419 | 22156 ft | 402 kts | 308° |
| 2026-04-24 10:38 | -8.37605 | 114.90167 | 22712 ft | 406 kts | 308° |
| 2026-04-24 10:38 | -8.35878 | 114.87901 | 23241 ft | 410 kts | 308° |
| 2026-04-24 10:39 | -8.34143 | 114.85622 | 23787 ft | 414 kts | 308° |
| 2026-04-24 10:39 | -8.32376 | 114.83302 | 24320 ft | 417 kts | 308° |
| 2026-04-24 10:39 | -8.30588 | 114.80955 | 24843 ft | 421 kts | 308° |
| 2026-04-24 10:39 | -8.28808 | 114.78617 | 25350 ft | 425 kts | 308° |
| 2026-04-24 10:40 | -8.27008 | 114.76255 | 25853 ft | 428 kts | 308° |
| 2026-04-24 10:40 | -8.25175 | 114.73850 | 26358 ft | 431 kts | 308° |
| 2026-04-24 10:40 | -8.23351 | 114.71458 | 26819 ft | 435 kts | 308° |
| 2026-04-24 10:40 | -8.21483 | 114.69007 | 27277 ft | 439 kts | 308° |
| 2026-04-24 10:41 | -8.19621 | 114.66564 | 27735 ft | 442 kts | 308° |
| 2026-04-24 10:41 | -8.17748 | 114.64108 | 28186 ft | 445 kts | 308° |
| 2026-04-24 10:41 | -8.15855 | 114.61626 | 28646 ft | 448 kts | 308° |
| 2026-04-24 10:41 | -8.13951 | 114.59130 | 29078 ft | 452 kts | 308° |
| 2026-04-24 10:42 | -8.12008 | 114.56583 | 29491 ft | 456 kts | 308° |
| 2026-04-24 10:42 | -8.10074 | 114.54049 | 29922 ft | 459 kts | 308° |
| 2026-04-24 10:42 | -8.08135 | 114.51508 | 30374 ft | 461 kts | 308° |
| 2026-04-24 10:42 | -8.06155 | 114.48914 | 30767 ft | 465 kts | 308° |
| 2026-04-24 10:43 | -8.04172 | 114.46318 | 31193 ft | 467 kts | 308° |
| 2026-04-24 10:43 | -8.02176 | 114.43703 | 31588 ft | 470 kts | 308° |
| 2026-04-24 10:43 | -8.00171 | 114.41077 | 31969 ft | 474 kts | 308° |
| 2026-04-24 10:43 | -7.98149 | 114.38430 | 32358 ft | 477 kts | 308° |
| 2026-04-24 10:44 | -7.96114 | 114.35766 | 32761 ft | 479 kts | 309° |
| 2026-04-24 10:44 | -7.94098 | 114.33127 | 33367 ft | 477 kts | 309° |
| 2026-04-24 10:44 | -7.92083 | 114.30489 | 34219 ft | 471 kts | 309° |
| 2026-04-24 10:44 | -7.90092 | 114.27882 | 34829 ft | 469 kts | 309° |
| 2026-04-24 10:45 | -7.88079 | 114.25249 | 35429 ft | 467 kts | 309° |
| 2026-04-24 10:45 | -7.86117 | 114.22682 | 35910 ft | 467 kts | 309° |
| 2026-04-24 10:45 | -7.84122 | 114.20074 | 35943 ft | 471 kts | 309° |
| 2026-04-24 10:46 | -7.80112 | 114.14831 | 35930 ft | 466 kts | 309° |
| 2026-04-24 10:46 | -7.76165 | 114.09673 | 35902 ft | 466 kts | 309° |
| 2026-04-24 10:47 | -7.72372 | 114.04349 | 35890 ft | 468 kts | 304° |
| 2026-04-24 10:47 | -7.68830 | 113.98803 | 35890 ft | 469 kts | 304° |
| 2026-04-24 10:48 | -7.65307 | 113.93289 | 35887 ft | 468 kts | 304° |
| 2026-04-24 10:48 | -7.61751 | 113.87780 | 35890 ft | 468 kts | 304° |
| 2026-04-24 10:49 | -7.58180 | 113.82278 | 35897 ft | 468 kts | 304° |
| 2026-04-24 10:49 | -7.54604 | 113.76781 | 35879 ft | 468 kts | 304° |
| 2026-04-24 10:50 | -7.51041 | 113.71313 | 35878 ft | 468 kts | 304° |
| 2026-04-24 10:50 | -7.47464 | 113.65828 | 35875 ft | 469 kts | 304° |
| 2026-04-24 10:51 | -7.43885 | 113.60341 | 35872 ft | 469 kts | 304° |
| 2026-04-24 10:51 | -7.40285 | 113.54826 | 35877 ft | 469 kts | 304° |
| 2026-04-24 10:52 | -7.36700 | 113.49337 | 35867 ft | 470 kts | 304° |
| 2026-04-24 10:52 | -7.33098 | 113.43822 | 35873 ft | 470 kts | 304° |
| 2026-04-24 10:53 | -7.29504 | 113.38321 | 35856 ft | 470 kts | 304° |
| 2026-04-24 10:53 | -7.25892 | 113.32796 | 35852 ft | 470 kts | 304° |
| 2026-04-24 10:54 | -7.22289 | 113.27284 | 35863 ft | 470 kts | 304° |
| 2026-04-24 10:54 | -7.18677 | 113.21764 | 35855 ft | 470 kts | 304° |
| 2026-04-24 10:55 | -7.15099 | 113.16295 | 35869 ft | 470 kts | 304° |
| 2026-04-24 10:55 | -7.11485 | 113.10774 | 35861 ft | 472 kts | 304° |
| 2026-04-24 10:56 | -7.07852 | 113.05225 | 35857 ft | 472 kts | 304° |
| 2026-04-24 10:56 | -7.04255 | 112.99734 | 35869 ft | 471 kts | 304° |
| 2026-04-24 10:57 | -7.00636 | 112.94211 | 35857 ft | 472 kts | 304° |
| 2026-04-24 10:57 | -6.97025 | 112.88702 | 35849 ft | 470 kts | 304° |
| 2026-04-24 10:58 | -6.93408 | 112.83186 | 35847 ft | 471 kts | 304° |
| 2026-04-24 10:58 | -6.89788 | 112.77666 | 35843 ft | 473 kts | 304° |
| 2026-04-24 10:59 | -6.86148 | 112.72118 | 35841 ft | 473 kts | 304° |
| 2026-04-24 10:59 | -6.82544 | 112.66627 | 35837 ft | 472 kts | 304° |
| 2026-04-24 11:00 | -6.78909 | 112.61092 | 35840 ft | 472 kts | 304° |
| 2026-04-24 11:00 | -6.75289 | 112.55579 | 35837 ft | 471 kts | 304° |
| 2026-04-24 11:01 | -6.71673 | 112.50074 | 35839 ft | 472 kts | 304° |
| 2026-04-24 11:01 | -6.68060 | 112.44578 | 35839 ft | 472 kts | 304° |
| 2026-04-24 11:02 | -6.64440 | 112.39070 | 35837 ft | 472 kts | 304° |
| 2026-04-24 11:02 | -6.60799 | 112.33534 | 35836 ft | 472 kts | 304° |
| 2026-04-24 11:03 | -6.57167 | 112.28012 | 35588 ft | 468 kts | 304° |
| 2026-04-24 11:03 | -6.55394 | 112.25316 | 34915 ft | 467 kts | 304° |
| 2026-04-24 11:03 | -6.53594 | 112.22580 | 34104 ft | 468 kts | 304° |
| 2026-04-24 11:03 | -6.51797 | 112.19852 | 33259 ft | 469 kts | 304° |
| 2026-04-24 11:04 | -6.50008 | 112.17134 | 32417 ft | 470 kts | 304° |
| 2026-04-24 11:04 | -6.48201 | 112.14390 | 31564 ft | 473 kts | 304° |
| 2026-04-24 11:04 | -6.46391 | 112.11641 | 30659 ft | 476 kts | 304° |
| 2026-04-24 11:04 | -6.44554 | 112.08852 | 29701 ft | 479 kts | 304° |
| 2026-04-24 11:05 | -6.42813 | 112.05967 | 28668 ft | 483 kts | 298° |
| 2026-04-24 11:05 | -6.41372 | 112.02933 | 27626 ft | 487 kts | 293° |
| 2026-04-24 11:05 | -6.40227 | 111.99758 | 26547 ft | 492 kts | 286° |
| 2026-04-24 11:05 | -6.39530 | 111.96413 | 25764 ft | 488 kts | 278° |
| 2026-04-24 11:06 | -6.39169 | 111.93024 | 25076 ft | 483 kts | 274° |
| 2026-04-24 11:06 | -6.39151 | 111.89678 | 24332 ft | 479 kts | 266° |
| 2026-04-24 11:06 | -6.39612 | 111.86389 | 23566 ft | 476 kts | 259° |
| 2026-04-24 11:06 | -6.40354 | 111.83209 | 22801 ft | 473 kts | 255° |
| 2026-04-24 11:07 | -6.42910 | 111.77153 | 21272 ft | 468 kts | 240° |
| 2026-04-24 11:07 | -6.44612 | 111.74437 | 20512 ft | 466 kts | 236° |
| 2026-04-24 11:07 | -6.46607 | 111.71841 | 19720 ft | 464 kts | 228° |
| 2026-04-24 11:08 | -6.48908 | 111.69620 | 18935 ft | 462 kts | 221° |
| 2026-04-24 11:08 | -6.51418 | 111.67596 | 18141 ft | 460 kts | 216° |
| 2026-04-24 11:08 | -6.54078 | 111.65838 | 17335 ft | 451 kts | 211° |
| 2026-04-24 11:08 | -6.56747 | 111.64282 | 16551 ft | 439 kts | 209° |
| 2026-04-24 11:09 | -6.59328 | 111.62721 | 15798 ft | 428 kts | 213° |
| 2026-04-24 11:09 | -6.61533 | 111.60813 | 15081 ft | 416 kts | 231° |
| 2026-04-24 11:09 | -6.62960 | 111.58349 | 14362 ft | 404 kts | 249° |
| 2026-04-24 11:09 | -6.63916 | 111.55716 | 13658 ft | 395 kts | 251° |
| 2026-04-24 11:10 | -6.64867 | 111.53104 | 12963 ft | 399 kts | 250° |
| 2026-04-24 11:10 | -6.65831 | 111.50491 | 12247 ft | 400 kts | 250° |
| 2026-04-24 11:10 | -6.66791 | 111.47883 | 11535 ft | 398 kts | 250° |
| 2026-04-24 11:10 | -6.67744 | 111.45293 | 10935 ft | 386 kts | 250° |
| 2026-04-24 11:11 | -6.68645 | 111.42844 | 10645 ft | 364 kts | 250° |
| 2026-04-24 11:11 | -6.69493 | 111.40524 | 10573 ft | 339 kts | 251° |
| 2026-04-24 11:11 | -6.70276 | 111.38373 | 10481 ft | 319 kts | 251° |
| 2026-04-24 11:11 | -6.71027 | 111.36302 | 10360 ft | 315 kts | 251° |
| 2026-04-24 11:12 | -6.71780 | 111.34224 | 10198 ft | 309 kts | 251° |
| 2026-04-24 11:12 | -6.72511 | 111.32208 | 9864 ft | 306 kts | 251° |
| 2026-04-24 11:12 | -6.73238 | 111.30204 | 9445 ft | 306 kts | 251° |
| 2026-04-24 11:12 | -6.73970 | 111.28186 | 9045 ft | 301 kts | 251° |
| 2026-04-24 11:13 | -6.74677 | 111.26242 | 8686 ft | 295 kts | 251° |
| 2026-04-24 11:13 | -6.75385 | 111.24291 | 8304 ft | 294 kts | 251° |
| 2026-04-24 11:13 | -6.76089 | 111.22352 | 7929 ft | 293 kts | 250° |
| 2026-04-24 11:13 | -6.76782 | 111.20444 | 7560 ft | 292 kts | 250° |
| 2026-04-24 11:14 | -6.77481 | 111.18516 | 7190 ft | 291 kts | 250° |
| 2026-04-24 11:14 | -6.78179 | 111.16624 | 7006 ft | 283 kts | 250° |
| 2026-04-24 11:14 | -6.78876 | 111.14805 | 7012 ft | 278 kts | 249° |
| 2026-04-24 11:14 | -6.79587 | 111.12965 | 7010 ft | 283 kts | 249° |
| 2026-04-24 11:15 | -6.80302 | 111.11108 | 7009 ft | 284 kts | 249° |
| 2026-04-24 11:15 | -6.81020 | 111.09241 | 7011 ft | 283 kts | 249° |
| 2026-04-24 11:15 | -6.81722 | 111.07413 | 7012 ft | 283 kts | 249° |
| 2026-04-24 11:15 | -6.82443 | 111.05533 | 7012 ft | 283 kts | 249° |
| 2026-04-24 11:16 | -6.83151 | 111.03688 | 7012 ft | 283 kts | 249° |
| 2026-04-24 11:16 | -6.83865 | 111.01829 | 7015 ft | 283 kts | 249° |
| 2026-04-24 11:16 | -6.84569 | 110.99994 | 7017 ft | 283 kts | 249° |
| 2026-04-24 11:16 | -6.85279 | 110.98144 | 7015 ft | 283 kts | 249° |
| 2026-04-24 11:17 | -6.85995 | 110.96277 | 7010 ft | 283 kts | 249° |
| 2026-04-24 11:17 | -6.86697 | 110.94445 | 7007 ft | 283 kts | 249° |
| 2026-04-24 11:17 | -6.87412 | 110.92581 | 7002 ft | 283 kts | 249° |
| 2026-04-24 11:17 | -6.88120 | 110.90736 | 6999 ft | 283 kts | 249° |
| 2026-04-24 11:18 | -6.88835 | 110.88869 | 7001 ft | 283 kts | 249° |
| 2026-04-24 11:18 | -6.89539 | 110.87031 | 6995 ft | 283 kts | 249° |
| 2026-04-24 11:18 | -6.90253 | 110.85169 | 6994 ft | 283 kts | 249° |
| 2026-04-24 11:18 | -6.90958 | 110.83329 | 7000 ft | 283 kts | 249° |
| 2026-04-24 11:19 | -6.91671 | 110.81470 | 6988 ft | 282 kts | 249° |
| 2026-04-24 11:19 | -6.92374 | 110.79636 | 6787 ft | 277 kts | 249° |
| 2026-04-24 11:19 | -6.93057 | 110.77853 | 6461 ft | 276 kts | 249° |
| 2026-04-24 11:19 | -6.93747 | 110.76049 | 6110 ft | 275 kts | 249° |
| 2026-04-24 11:20 | -6.94435 | 110.74251 | 5767 ft | 275 kts | 249° |
| 2026-04-24 11:20 | -6.95128 | 110.72443 | 5416 ft | 274 kts | 249° |
| 2026-04-24 11:20 | -6.95806 | 110.70673 | 5072 ft | 274 kts | 249° |
| 2026-04-24 11:20 | -6.96500 | 110.68858 | 4719 ft | 274 kts | 249° |
| 2026-04-24 11:21 | -6.97182 | 110.67075 | 4370 ft | 273 kts | 249° |
| 2026-04-24 11:21 | -6.97858 | 110.65308 | 4028 ft | 273 kts | 249° |
| 2026-04-24 11:21 | -6.98539 | 110.63528 | 3676 ft | 272 kts | 249° |
| 2026-04-24 11:21 | -6.99220 | 110.61748 | 3348 ft | 271 kts | 249° |
| 2026-04-24 11:22 | -6.99885 | 110.60010 | 3235 ft | 260 kts | 249° |
| 2026-04-24 11:22 | -7.00522 | 110.58341 | 3169 ft | 248 kts | 249° |
| 2026-04-24 11:22 | -7.01132 | 110.56754 | 3095 ft | 238 kts | 246° |
| 2026-04-24 11:22 | -7.01936 | 110.55312 | 3007 ft | 229 kts | 228° |
| 2026-04-24 11:23 | -7.03082 | 110.54275 | 2859 ft | 219 kts | 217° |
| 2026-04-24 11:23 | -7.04253 | 110.53335 | 2716 ft | 209 kts | 218° |
| 2026-04-24 11:23 | -7.05351 | 110.52421 | 2589 ft | 199 kts | 219° |
| 2026-04-24 11:23 | -7.06339 | 110.51495 | 2471 ft | 189 kts | 231° |
| 2026-04-24 11:24 | -7.06844 | 110.50332 | 2357 ft | 175 kts | 265° |
| 2026-04-24 11:24 | -7.06743 | 110.49147 | 2272 ft | 165 kts | 287° |
| 2026-04-24 11:24 | -7.06218 | 110.48161 | 2159 ft | 157 kts | 314° |
| 2026-04-24 11:24 | -7.05490 | 110.47330 | 2071 ft | 160 kts | 313° |
| 2026-04-24 11:25 | -7.04766 | 110.46460 | 1963 ft | 161 kts | 313° |
| 2026-04-24 11:25 | -7.04034 | 110.45589 | 1849 ft | 162 kts | 313° |
| 2026-04-24 11:25 | -7.03305 | 110.44723 | 1651 ft | 162 kts | 312° |
| 2026-04-24 11:25 | -7.02575 | 110.43855 | 1442 ft | 158 kts | 313° |
| 2026-04-24 11:26 | -7.01863 | 110.43012 | 1241 ft | 157 kts | 312° |
| 2026-04-24 11:26 | -7.01160 | 110.42179 | 1039 ft | 155 kts | 312° |
| 2026-04-24 11:26 | -7.00462 | 110.41348 | 820 ft | 154 kts | 311° |
| 2026-04-24 11:26 | -6.99774 | 110.40533 | 639 ft | 151 kts | 312° |
| 2026-04-24 11:27 | -6.99092 | 110.39721 | 458 ft | 152 kts | 310° |
| 2026-04-24 11:27 | -6.98404 | 110.38898 | 260 ft | 154 kts | 311° |
| 2026-04-24 11:27 | -6.97704 | 110.38080 | 80 ft | 149 kts | 311° |
| 2026-04-24 11:27 | -6.97085 | 110.37346 | 25 ft | 112 kts | 309° |
| 2026-04-24 11:28 | -6.96779 | 110.36963 | 21 ft | 35 kts | 303° |
| 2026-04-24 11:28 | -6.96716 | 110.36912 | 21 ft | 3 kts | 102° |
| 2026-04-24 11:28 | -6.96745 | 110.36951 | 21 ft | 10 kts | 126° |
| 2026-04-24 11:28 | -6.96784 | 110.37028 | 21 ft | 7 kts | 84° |
| 2026-04-24 11:29 | -6.96754 | 110.37079 | 21 ft | 9 kts | 46° |
| 2026-04-24 11:29 | -6.96698 | 110.37131 | 21 ft | 12 kts | 41° |
| 2026-04-24 11:29 | -6.96633 | 110.37186 | 21 ft | 10 kts | 53° |
| 2026-04-24 11:29 | -6.96650 | 110.37252 | 21 ft | 10 kts | 126° |
| 2026-04-24 11:30 | -6.96695 | 110.37308 | 21 ft | 6 kts | 129° |
| 2026-04-24 11:30 | -6.96685 | 110.37345 | 21 ft | 7 kts | 48° |
| 2026-04-24 11:30 | -6.96656 | 110.37373 | 21 ft | 3 kts | 40° |
| 2026-04-24 11:30 | -6.96651 | 110.37377 | 21 ft | 0 kts | 41° |